CheckWX is a tool to help pilots better visualize weather data.  It is not intended as a substitute for an official pre-flight weather briefing.

04:39:34 UTC

KLWB TAF
Greenbrier Valley Airport
Lewisburg, West Virginia, USA
KLWB 222325Z 2300/2324 30012G22KT P6SM SCT030 BKN060 TEMPO 2300/2302 4SM -SHRASN BR BKN030 FM230200 30011G21KT P6SM VCSH SCT040 FM230500 31010G19KT P6SM SCT050 FM232200 30009KT P6SM SKC

Mar-23@
00:00 UTC

Mar-23 @ 00:00 UTC

Mar-23@
02:00 UTC

Mar-23 @ 02:00 UTC

KLWB 222325Z 2300/2324 30012G22KT P6SM SCT030 BKN060

Expired

Wind
  • 300° at 12 KTS
  • {Gusting to 22 KTS
Cloud Levels
  • Scattered at 3,000' AGL
  • Broken at 6,000' AGL

Mar-23@
00:00 UTC

Mar-23 @ 00:00 UTC

Mar-23@
02:00 UTC

Mar-23 @ 02:00 UTC

TEMPO 2300/2302 4SM -SHRASN BR BKN030

Expired

Conditions
Light Rain, Light Snow, Mist
Cloud Levels
  • Broken at 3,000' AGL

Mar-23@
02:00 UTC

Mar-23 @ 02:00 UTC

Mar-23@
05:00 UTC

Mar-23 @ 05:00 UTC

FM230200 30011G21KT P6SM VCSH SCT040

From

From Standard forecast or significant change

Wind
  • 300° at 11 KTS
  • {Gusting to 21 KTS
Cloud Levels
  • Scattered at 4,000' AGL

Mar-23@
05:00 UTC

Mar-23 @ 05:00 UTC

Mar-23@
22:00 UTC

Mar-23 @ 22:00 UTC

FM230500 31010G19KT P6SM SCT050

From

From Standard forecast or significant change

Wind
  • 310° at 10 KTS
  • {Gusting to 19 KTS
Cloud Levels
  • Scattered at 5,000' AGL

Mar-23@
22:00 UTC

Mar-23 @ 22:00 UTC

Mar-24@
00:00 UTC

Mar-24 @ 00:00 UTC

FM232200 30009KT P6SM SKC

From

From Standard forecast or significant change

Wind
  • 300° at 9 KTS
Cloud Levels
  • Clear skies